createdAt,value
2018-10-21T00:00:53.562Z,100411.16
2018-10-21T00:03:22.110Z,100408.88
2018-10-21T00:05:50.459Z,100408.03
2018-10-21T00:08:18.848Z,100415.81
2018-10-21T00:10:47.219Z,100416.42
2018-10-21T00:13:15.634Z,100409.73
2018-10-21T00:15:44.172Z,100409.53
2018-10-21T00:18:12.483Z,100410.79
2018-10-21T00:20:40.855Z,100413.63
2018-10-21T00:23:09.421Z,100417.30
2018-10-21T00:25:39.792Z,100415.27
2018-10-21T00:28:08.416Z,100409.63
2018-10-21T00:30:36.990Z,100407.55
2018-10-21T00:33:05.985Z,100407.14
2018-10-21T00:35:34.585Z,100409.36
2018-10-21T00:38:03.464Z,100401.53
2018-10-21T00:40:32.282Z,100401.64
2018-10-21T00:43:00.856Z,100397.58
2018-10-21T00:45:29.404Z,100398.91
2018-10-21T00:47:58.173Z,100397.30
2018-10-21T00:50:26.876Z,100399.13
2018-10-21T00:52:55.573Z,100401.33
2018-10-21T00:55:24.015Z,100405.13
2018-10-21T00:57:52.363Z,100400.82
2018-10-21T01:00:20.824Z,100402.51
2018-10-21T01:02:49.282Z,100396.56
2018-10-21T01:05:17.690Z,100396.26
2018-10-21T01:07:46.275Z,100390.80
2018-10-21T01:10:14.676Z,100393.53
2018-10-21T01:12:43.256Z,100388.78
2018-10-21T01:15:12.882Z,100383.94
2018-10-21T01:17:41.797Z,100389.30
2018-10-21T01:20:12.674Z,100388.23
2018-10-21T01:22:41.800Z,100391.12
2018-10-21T01:25:11.189Z,100389.60
2018-10-21T01:27:41.508Z,100389.98
2018-10-21T01:30:11.534Z,100390.00
2018-10-21T01:32:40.752Z,100399.14
2018-10-21T01:35:09.448Z,100403.58
2018-10-21T01:37:38.248Z,100405.27
2018-10-21T01:40:42.865Z,100408.56
2018-10-21T01:43:12.702Z,100418.62
2018-10-21T01:45:41.109Z,100420.56
2018-10-21T01:48:10.978Z,100421.81
2018-10-21T01:50:39.515Z,100417.16
2018-10-21T01:53:08.886Z,100415.97
2018-10-21T01:55:37.577Z,100408.62
2018-10-21T01:58:06.587Z,100405.96
2018-10-21T02:00:39.815Z,100412.71
2018-10-21T02:03:15.354Z,100407.69
2018-10-21T02:05:44.519Z,100405.20
2018-10-21T02:08:13.043Z,100417.91
2018-10-21T02:10:41.564Z,100412.78
2018-10-21T02:13:10.023Z,100414.53
2018-10-21T02:15:38.534Z,100418.81
2018-10-21T02:18:07.027Z,100410.36
2018-10-21T02:20:35.477Z,100408.75
2018-10-21T02:23:03.965Z,100408.06
2018-10-21T02:25:32.828Z,100403.51
2018-10-21T02:28:01.313Z,100406.43
2018-10-21T02:30:30.928Z,100406.02
2018-10-21T02:33:00.548Z,100401.62
2018-10-21T02:35:29.003Z,100401.62
2018-10-21T02:38:02.089Z,100392.26
2018-10-21T02:40:48.762Z,100393.64
2018-10-21T02:43:17.406Z,100384.44
2018-10-21T02:45:46.105Z,100391.25
2018-10-21T02:48:14.496Z,100388.45
2018-10-21T02:50:52.208Z,100391.38
2018-10-21T02:53:21.953Z,100391.88
2018-10-21T02:55:50.493Z,100377.97
2018-10-21T02:58:18.860Z,100379.66
2018-10-21T03:00:47.276Z,100375.07
2018-10-21T03:03:15.783Z,100373.22
2018-10-21T03:05:44.210Z,100374.97
2018-10-21T03:08:12.652Z,100374.19
2018-10-21T03:10:41.264Z,100365.97
2018-10-21T03:13:10.068Z,100367.93
2018-10-21T03:15:38.502Z,100362.86
2018-10-21T03:18:06.933Z,100355.08
2018-10-21T03:20:35.378Z,100343.80
2018-10-21T03:23:04.180Z,100348.14
2018-10-21T03:25:32.548Z,100347.06
2018-10-21T03:28:01.397Z,100348.06
2018-10-21T03:30:30.052Z,100347.80
2018-10-21T03:32:58.967Z,100348.47
2018-10-21T03:35:27.313Z,100353.24
2018-10-21T03:37:56.340Z,100350.81
2018-10-21T03:40:25.560Z,100347.86
2018-10-21T03:42:54.901Z,100343.23
2018-10-21T03:45:23.842Z,100344.80
2018-10-21T03:47:52.253Z,100349.34
2018-10-21T03:50:20.831Z,100343.88
2018-10-21T03:52:49.831Z,100349.43
2018-10-21T03:55:18.521Z,100350.73
2018-10-21T03:57:47.090Z,100347.08
2018-10-21T04:00:15.784Z,100344.59
2018-10-21T04:02:44.685Z,100350.11
2018-10-21T04:05:13.311Z,100351.80
2018-10-21T04:07:42.804Z,100352.59
2018-10-21T04:10:11.415Z,100347.97
2018-10-21T04:12:39.804Z,100346.73
2018-10-21T04:15:08.893Z,100342.31
2018-10-21T04:17:39.272Z,100339.19
2018-10-21T04:20:09.248Z,100338.15
2018-10-21T04:23:10.288Z,100340.62
2018-10-21T04:25:41.193Z,100332.31
2018-10-21T04:28:10.299Z,100332.63
2018-10-21T04:30:40.021Z,100322.81
2018-10-21T04:33:13.991Z,100317.78
2018-10-21T04:35:43.086Z,100317.27
2018-10-21T04:38:24.892Z,100325.59
2018-10-21T04:40:54.840Z,100322.89
2018-10-21T04:43:25.638Z,100320.72
2018-10-21T04:45:54.243Z,100320.64
2018-10-21T04:48:23.201Z,100315.95
2018-10-21T04:50:52.005Z,100308.69
2018-10-21T04:53:20.421Z,100309.31
2018-10-21T04:55:49.085Z,100304.45
2018-10-21T04:58:17.756Z,100305.28
2018-10-21T05:00:46.248Z,100301.23
2018-10-21T05:03:15.369Z,100299.34
2018-10-21T05:05:44.445Z,100304.45
2018-10-21T05:08:20.449Z,100309.27
2018-10-21T05:10:48.960Z,100307.08
2018-10-21T05:13:17.399Z,100307.05
2018-10-21T05:15:46.056Z,100307.48
2018-10-21T05:18:14.931Z,100309.39
2018-10-21T05:20:43.782Z,100306.39
2018-10-21T05:23:12.614Z,100308.27
2018-10-21T05:25:52.754Z,100308.22
2018-10-21T05:28:21.481Z,100307.43
2018-10-21T05:30:53.158Z,100306.88
2018-10-21T05:33:36.086Z,100306.03
2018-10-21T05:36:04.556Z,100304.84
2018-10-21T05:38:33.256Z,100303.44
2018-10-21T05:41:01.644Z,100309.55
2018-10-21T05:43:30.360Z,100316.27
2018-10-21T05:45:58.842Z,100315.80
2018-10-21T05:48:27.595Z,100314.44
2018-10-21T05:50:56.095Z,100315.80
2018-10-21T05:53:24.601Z,100312.00
2018-10-21T05:55:53.046Z,100311.74
2018-10-21T05:58:21.533Z,100312.11
2018-10-21T06:00:49.989Z,100314.30
2018-10-21T06:03:18.719Z,100312.45
2018-10-21T06:05:49.378Z,100319.73
2018-10-21T06:08:32.896Z,100317.52
2018-10-21T06:11:11.009Z,100313.34
2018-10-21T06:13:47.208Z,100313.82
2018-10-21T06:16:15.846Z,100312.30
2018-10-21T06:18:50.434Z,100318.64
2018-10-21T06:21:19.250Z,100317.01
2018-10-21T06:23:47.687Z,100322.75
2018-10-21T06:26:16.345Z,100326.13
2018-10-21T06:28:45.378Z,100330.06
2018-10-21T06:31:13.890Z,100323.58
2018-10-21T06:33:42.401Z,100329.86
2018-10-21T06:36:11.241Z,100333.66
2018-10-21T06:38:39.708Z,100326.05
2018-10-21T06:41:08.159Z,100329.57
2018-10-21T06:43:36.554Z,100326.89
2018-10-21T06:46:05.133Z,100332.30
2018-10-21T06:48:33.699Z,100335.89
2018-10-21T06:51:02.702Z,100333.50
2018-10-21T06:53:31.070Z,100336.88
2018-10-21T06:55:59.540Z,100339.86
2018-10-21T06:58:28.065Z,100335.06
2018-10-21T07:00:56.707Z,100339.95
2018-10-21T07:03:29.665Z,100340.00
2018-10-21T07:06:17.238Z,100340.64
2018-10-21T07:08:46.584Z,100349.48
2018-10-21T07:11:15.291Z,100346.86
2018-10-21T07:13:43.957Z,100338.92
2018-10-21T07:16:13.080Z,100343.95
2018-10-21T07:18:42.445Z,100345.03
2018-10-21T07:21:11.133Z,100342.69
2018-10-21T07:23:39.856Z,100347.95
2018-10-21T07:26:08.324Z,100350.05
2018-10-21T07:28:36.811Z,100354.14
2018-10-21T07:31:05.783Z,100354.56
2018-10-21T07:33:34.440Z,100359.73
2018-10-21T07:36:02.951Z,100358.53
2018-10-21T07:38:31.416Z,100362.61
2018-10-21T07:40:59.839Z,100371.75
2018-10-21T07:43:28.286Z,100381.70
2018-10-21T07:45:56.789Z,100378.98
2018-10-21T07:48:25.127Z,100380.09
2018-10-21T07:50:53.548Z,100377.14
2018-10-21T07:53:22.339Z,100377.56
2018-10-21T07:55:51.125Z,100382.00
2018-10-21T07:58:19.433Z,100383.42
2018-10-21T08:00:47.985Z,100382.34
2018-10-21T08:03:17.012Z,100382.61
2018-10-21T08:05:56.729Z,100378.02
2018-10-21T08:08:26.239Z,100378.30
2018-10-21T08:10:54.648Z,100375.56
2018-10-21T08:13:24.306Z,100378.02
2018-10-21T08:15:52.677Z,100375.85
2018-10-21T08:18:21.117Z,100374.71
2018-10-21T08:20:50.470Z,100376.07
2018-10-21T08:23:19.526Z,100373.81
2018-10-21T08:25:49.280Z,100367.55
2018-10-21T08:28:17.766Z,100367.45
2018-10-21T08:30:46.164Z,100359.31
2018-10-21T08:33:14.584Z,100361.27
2018-10-21T08:35:42.959Z,100342.77
2018-10-21T08:38:11.662Z,100361.95
2018-10-21T08:40:40.338Z,100369.98
2018-10-21T08:43:08.813Z,100365.70
2018-10-21T08:45:37.188Z,100374.19
2018-10-21T08:48:05.912Z,100364.78
2018-10-21T08:50:34.790Z,100371.12
2018-10-21T08:53:03.158Z,100366.39
2018-10-21T08:55:31.595Z,100360.31
2018-10-21T08:58:00.039Z,100362.37
2018-10-21T09:00:28.890Z,100363.17
2018-10-21T09:02:57.330Z,100364.95
2018-10-21T09:05:26.032Z,100362.92
2018-10-21T09:07:54.427Z,100369.94
2018-10-21T09:10:23.047Z,100364.03
2018-10-21T09:12:51.355Z,100363.22
2018-10-21T09:15:19.848Z,100366.52
2018-10-21T09:17:48.211Z,100366.77
2018-10-21T09:20:17.811Z,100374.10
2018-10-21T09:22:46.169Z,100379.94
2018-10-21T09:25:14.945Z,100374.59
2018-10-21T09:27:44.419Z,100369.59
2018-10-21T09:30:14.367Z,100367.23
2018-10-21T09:32:42.788Z,100369.67
2018-10-21T09:35:15.228Z,100368.46
2018-10-21T09:37:44.064Z,100367.94
2018-10-21T09:40:14.829Z,100366.77
2018-10-21T09:42:44.268Z,100370.75
2018-10-21T09:45:14.633Z,100364.73
2018-10-21T09:47:43.539Z,100362.84
2018-10-21T09:50:12.624Z,100350.50
2018-10-21T09:52:40.992Z,100354.61
2018-10-21T09:55:15.490Z,100351.08
2018-10-21T09:57:44.642Z,100347.91
2018-10-21T10:00:15.082Z,100350.45
2018-10-21T10:02:48.614Z,100348.42
2018-10-21T10:05:17.407Z,100347.83
2018-10-21T10:07:45.838Z,100342.69
2018-10-21T10:10:14.341Z,100344.78
2018-10-21T10:12:42.747Z,100334.03
2018-10-21T10:15:11.209Z,100339.83
2018-10-21T10:17:40.274Z,100342.86
2018-10-21T10:20:10.240Z,100344.14
2018-10-21T10:22:38.955Z,100337.94
2018-10-21T10:25:08.463Z,100334.92
2018-10-21T10:27:36.867Z,100331.92
2018-10-21T10:30:06.228Z,100332.02
2018-10-21T10:32:34.961Z,100333.59
2018-10-21T10:35:03.604Z,100333.78
2018-10-21T10:37:32.011Z,100329.48
2018-10-21T10:40:00.581Z,100323.61
2018-10-21T10:42:28.939Z,100324.29
2018-10-21T10:44:57.393Z,100321.30
2018-10-21T10:47:25.831Z,100326.80
2018-10-21T10:49:54.249Z,100314.73
2018-10-21T10:52:22.662Z,100315.71
2018-10-21T10:54:51.070Z,100315.08
2018-10-21T10:57:19.975Z,100318.70
2018-10-21T10:59:48.556Z,100315.93
2018-10-21T11:02:16.827Z,100307.95
2018-10-21T11:04:45.322Z,100311.11
2018-10-21T11:07:14.221Z,100298.75
2018-10-21T11:09:42.578Z,100306.16
2018-10-21T11:12:11.080Z,100293.73
2018-10-21T11:14:39.616Z,100290.80
2018-10-21T11:17:08.071Z,100294.29
2018-10-21T11:19:36.812Z,100297.53
2018-10-21T11:22:05.471Z,100293.94
2018-10-21T11:24:37.746Z,100286.34
2018-10-21T11:27:06.991Z,100282.56
2018-10-21T11:29:35.378Z,100277.46
2018-10-21T11:32:04.216Z,100279.62
2018-10-21T11:34:32.620Z,100269.25
2018-10-21T11:37:01.124Z,100276.08
2018-10-21T11:39:29.477Z,100275.37
2018-10-21T11:41:58.361Z,100267.73
2018-10-21T11:44:26.753Z,100262.72
2018-10-21T11:46:55.375Z,100260.65
2018-10-21T11:49:24.063Z,100263.32
2018-10-21T11:51:52.532Z,100256.83
2018-10-21T11:54:21.034Z,100255.02
2018-10-21T11:56:49.462Z,100250.91
2018-10-21T11:59:17.943Z,100248.52
2018-10-21T12:01:46.825Z,100244.11
2018-10-21T12:04:15.316Z,100246.00
2018-10-21T12:06:43.715Z,100236.63
2018-10-21T12:09:13.175Z,100235.00
2018-10-21T12:11:41.965Z,100230.59
2018-10-21T12:14:10.784Z,100224.88
2018-10-21T12:16:39.790Z,100221.98
2018-10-21T12:19:08.542Z,100221.98
2018-10-21T12:21:37.114Z,100216.80
2018-10-21T12:24:05.686Z,100213.05
2018-10-21T12:26:34.576Z,100213.87
2018-10-21T12:29:03.537Z,100206.04
2018-10-21T12:31:31.978Z,100212.75
2018-10-21T12:34:00.481Z,100209.95
2018-10-21T12:36:28.907Z,100207.47
2018-10-21T12:38:57.596Z,100210.43
2018-10-21T12:41:25.976Z,100200.88
2018-10-21T12:43:54.420Z,100203.98
2018-10-21T12:46:23.125Z,100201.36
2018-10-21T12:48:51.728Z,100202.22
2018-10-21T12:51:20.144Z,100199.38
2018-10-21T12:53:48.528Z,100188.81
2018-10-21T12:56:17.308Z,100198.06
2018-10-21T12:58:45.774Z,100198.81
2018-10-21T13:01:14.255Z,100192.05
2018-10-21T13:03:43.525Z,100196.97
2018-10-21T13:06:11.978Z,100197.07
2018-10-21T13:08:40.887Z,100190.48
2018-10-21T13:11:09.432Z,100188.20
2018-10-21T13:13:38.362Z,100184.75
2018-10-21T13:16:06.945Z,100188.43
2018-10-21T13:18:35.641Z,100182.70
2018-10-21T13:21:03.973Z,100183.02
2018-10-21T13:23:32.429Z,100180.66
2018-10-21T13:26:00.858Z,100177.98
2018-10-21T13:28:29.309Z,100178.04
2018-10-21T13:30:57.662Z,100173.55
2018-10-21T13:33:26.096Z,100169.20
2018-10-21T13:35:54.518Z,100168.66
2018-10-21T13:38:23.282Z,100164.60
2018-10-21T13:40:53.197Z,100164.48
2018-10-21T13:43:22.713Z,100160.87
2018-10-21T13:45:51.287Z,100159.13
2018-10-21T13:48:19.664Z,100156.83
2018-10-21T13:50:48.106Z,100151.66
2018-10-21T13:53:16.581Z,100143.45
2018-10-21T13:55:44.994Z,100148.61
2018-10-21T13:58:13.491Z,100146.63
2018-10-21T14:00:42.016Z,100145.75
2018-10-21T14:03:10.271Z,100142.08
2018-10-21T14:05:38.964Z,100146.34
2018-10-21T14:08:07.994Z,100145.02
2018-10-21T14:10:36.473Z,100145.88
2018-10-21T14:13:05.875Z,100140.17
2018-10-21T14:15:34.249Z,100137.31
2018-10-21T14:18:02.707Z,100128.17
2018-10-21T14:20:31.127Z,100124.87
2018-10-21T14:22:59.536Z,100130.03
2018-10-21T14:25:27.990Z,100120.59
2018-10-21T14:27:56.373Z,100120.99
2018-10-21T14:30:24.920Z,100120.40
2018-10-21T14:32:53.812Z,100117.52
2018-10-21T14:35:22.259Z,100118.84
2018-10-21T14:37:50.690Z,100118.09
2018-10-21T14:40:19.180Z,100108.83
2018-10-21T14:42:47.635Z,100109.83
2018-10-21T14:45:16.200Z,100105.09
2018-10-21T14:47:44.528Z,100108.94
2018-10-21T14:50:13.540Z,100109.89
2018-10-21T14:52:42.271Z,100101.11
2018-10-21T14:55:11.717Z,100094.64
2018-10-21T14:57:40.404Z,100093.58
2018-10-21T15:00:10.926Z,100091.53
2018-10-21T15:02:39.257Z,100088.36
2018-10-21T15:05:10.001Z,100088.00
2018-10-21T15:07:38.777Z,100082.39
2018-10-21T15:10:08.564Z,100077.67
2018-10-21T15:12:37.320Z,100080.88
2018-10-21T15:15:06.520Z,100081.89
2018-10-21T15:17:34.982Z,100081.64
2018-10-21T15:20:03.418Z,100079.34
2018-10-21T15:22:31.853Z,100072.58
2018-10-21T15:25:00.280Z,100069.47
2018-10-21T15:27:28.689Z,100071.81
2018-10-21T15:29:57.181Z,100071.95
2018-10-21T15:32:25.651Z,100073.38
2018-10-21T15:34:54.698Z,100074.25
2018-10-21T15:37:23.647Z,100071.68
2018-10-21T15:39:52.199Z,100065.29
2018-10-21T15:42:20.600Z,100072.41
2018-10-21T15:44:49.056Z,100075.29
2018-10-21T15:47:17.587Z,100073.42
2018-10-21T15:49:46.211Z,100073.12
2018-10-21T15:52:15.137Z,100075.25
2018-10-21T15:54:43.505Z,100075.07
2018-10-21T15:57:11.947Z,100076.33
2018-10-21T15:59:40.691Z,100074.95
2018-10-21T16:02:09.431Z,100068.29
2018-10-21T16:04:37.813Z,100067.80
2018-10-21T16:07:06.703Z,100066.08
2018-10-21T16:09:35.451Z,100065.73
2018-10-21T16:12:04.227Z,100060.96
2018-10-21T16:14:32.997Z,100065.57
2018-10-21T16:17:01.311Z,100060.22
2018-10-21T16:19:29.743Z,100066.17
2018-10-21T16:21:58.479Z,100058.83
2018-10-21T16:24:27.004Z,100061.99
2018-10-21T16:26:56.286Z,100065.12
2018-10-21T16:29:25.466Z,100069.09
2018-10-21T16:31:54.359Z,100060.47
2018-10-21T16:34:22.686Z,100062.45
2018-10-21T16:36:51.242Z,100061.14
2018-10-21T16:39:19.701Z,100062.12
2018-10-21T16:41:48.189Z,100052.91
2018-10-21T16:44:16.662Z,100064.13
2018-10-21T16:46:45.348Z,100059.36
2018-10-21T16:49:13.762Z,100059.95
2018-10-21T16:51:42.305Z,100054.27
2018-10-21T16:54:10.820Z,100054.33
2018-10-21T16:56:44.788Z,100057.31
2018-10-21T16:59:13.209Z,100055.77
2018-10-21T17:01:41.853Z,100064.45
2018-10-21T17:04:10.324Z,100065.65
2018-10-21T17:06:38.681Z,100062.20
2018-10-21T17:09:12.287Z,100066.38
2018-10-21T17:11:40.665Z,100065.04
2018-10-21T17:14:09.372Z,100058.84
2018-10-21T17:16:38.123Z,100063.94
2018-10-21T17:19:07.010Z,100067.22
2018-10-21T17:21:35.451Z,100067.48
2018-10-21T17:24:04.000Z,100067.53
2018-10-21T17:26:32.544Z,100073.34
2018-10-21T17:29:01.233Z,100075.59
2018-10-21T17:31:29.883Z,100073.48
2018-10-21T17:33:58.340Z,100078.78
2018-10-21T17:36:27.003Z,100077.24
2018-10-21T17:38:55.496Z,100074.87
2018-10-21T17:41:24.300Z,100076.88
2018-10-21T17:43:52.733Z,100080.45
2018-10-21T17:46:21.477Z,100080.80
2018-10-21T17:48:50.265Z,100083.06
2018-10-21T17:51:18.682Z,100083.60
2018-10-21T17:53:47.082Z,100084.46
2018-10-21T17:56:15.497Z,100080.13
2018-10-21T17:58:44.122Z,100082.88
2018-10-21T18:01:12.593Z,100085.91
2018-10-21T18:03:40.961Z,100084.55
2018-10-21T18:06:09.340Z,100081.59
2018-10-21T18:08:38.024Z,100085.91
2018-10-21T18:11:06.659Z,100079.45
2018-10-21T18:13:35.358Z,100083.25
2018-10-21T18:16:03.921Z,100086.25
2018-10-21T18:18:32.980Z,100085.41
2018-10-21T18:21:01.366Z,100089.49
2018-10-21T18:23:30.112Z,100090.05
2018-10-21T18:25:58.664Z,100088.42
2018-10-21T18:28:27.347Z,100094.13
2018-10-21T18:30:55.878Z,100094.67
2018-10-21T18:33:24.241Z,100091.16
2018-10-21T18:35:52.691Z,100084.39
2018-10-21T18:38:21.374Z,100088.98
2018-10-21T18:40:49.967Z,100083.58
2018-10-21T18:43:18.357Z,100089.27
2018-10-21T18:45:46.752Z,100084.92
2018-10-21T18:48:15.190Z,100078.16
2018-10-21T18:50:43.633Z,100084.13
2018-10-21T18:53:12.214Z,100081.14
2018-10-21T18:55:40.847Z,100088.74
2018-10-21T18:58:09.301Z,100085.77
2018-10-21T19:00:37.696Z,100086.85
2018-10-21T19:03:06.713Z,100084.67
2018-10-21T19:05:35.098Z,100084.94
2018-10-21T19:08:03.702Z,100086.83
2018-10-21T19:10:32.243Z,100088.20
2018-10-21T19:13:00.669Z,100085.77
2018-10-21T19:15:29.146Z,100086.30
2018-10-21T19:17:57.822Z,100078.16
2018-10-21T19:20:26.197Z,100082.72
2018-10-21T19:22:54.832Z,100082.99
2018-10-21T19:25:23.491Z,100081.66
2018-10-21T19:27:52.014Z,100082.21
2018-10-21T19:30:20.456Z,100081.13
2018-10-21T19:32:48.826Z,100073.53
2018-10-21T19:35:17.414Z,100070.25
2018-10-21T19:37:45.911Z,100066.44
2018-10-21T19:40:15.504Z,100062.89
2018-10-21T19:42:44.272Z,100069.69
2018-10-21T19:45:13.247Z,100067.26
2018-10-21T19:47:41.896Z,100061.02
2018-10-21T19:50:12.302Z,100067.27
2018-10-21T19:52:41.606Z,100070.27
2018-10-21T19:55:10.383Z,100069.19
2018-10-21T19:57:38.695Z,100066.47
2018-10-21T20:00:09.414Z,100062.64
2018-10-21T20:02:37.924Z,100062.34
2018-10-21T20:05:07.330Z,100061.00
2018-10-21T20:07:36.504Z,100061.58
2018-10-21T20:10:07.160Z,100069.75
2018-10-21T20:12:35.615Z,100063.53
2018-10-21T20:15:04.431Z,100068.67
2018-10-21T20:17:33.245Z,100070.59
2018-10-21T20:20:01.592Z,100068.41
2018-10-21T20:22:30.019Z,100066.80
2018-10-21T20:27:52.723Z,100068.98
2018-10-21T20:30:21.138Z,100073.58
2018-10-21T20:32:49.635Z,100072.77
2018-10-21T20:35:18.239Z,100077.89
2018-10-21T20:37:46.661Z,100081.14
2018-10-21T20:40:15.127Z,100078.16
2018-10-21T20:42:43.488Z,100077.61
2018-10-21T20:45:12.861Z,100079.52
2018-10-21T20:47:41.170Z,100084.12
2018-10-21T20:50:09.997Z,100087.91
2018-10-21T20:52:38.455Z,100082.22
2018-10-21T20:55:07.524Z,100084.37
2018-10-21T20:57:35.990Z,100090.06
2018-10-21T21:00:04.410Z,100086.27
2018-10-21T21:02:32.780Z,100082.22
2018-10-21T21:05:01.166Z,100088.73
2018-10-21T21:07:29.506Z,100084.94
2018-10-21T21:09:58.812Z,100093.33
2018-10-21T21:12:27.128Z,100097.94
2018-10-21T21:14:55.500Z,100095.77
2018-10-21T21:17:23.902Z,100097.39
2018-10-21T21:19:52.312Z,100100.09
2018-10-21T21:22:20.649Z,100098.47
2018-10-21T21:24:49.064Z,100099.00
2018-10-21T21:27:17.505Z,100097.34
2018-10-21T21:29:45.921Z,100100.59
2018-10-21T21:32:14.276Z,100094.90
2018-10-21T21:34:42.673Z,100097.33
2018-10-21T21:40:01.459Z,100099.48
2018-10-21T21:42:29.579Z,100098.12
2018-10-21T21:44:57.708Z,100098.37
2018-10-21T21:47:26.416Z,100106.23
2018-10-21T21:49:54.558Z,100111.09
2018-10-21T21:52:22.692Z,100108.38
2018-10-21T21:54:50.806Z,100114.30
2018-10-21T21:57:19.408Z,100125.39
2018-10-21T21:59:47.712Z,100116.50
2018-10-21T22:02:16.051Z,100121.05
2018-10-21T22:04:44.410Z,100116.43
2018-10-21T22:07:13.057Z,100115.91
2018-10-21T22:09:41.892Z,100108.92
2018-10-21T22:12:10.322Z,100112.17
2018-10-21T22:14:38.608Z,100101.34
2018-10-21T22:17:06.906Z,100105.95
2018-10-21T22:19:35.310Z,100113.02
2018-10-21T22:22:04.020Z,100107.94
2018-10-21T22:24:32.353Z,100107.14
2018-10-21T22:27:00.704Z,100105.29
2018-10-21T22:29:29.756Z,100105.83
2018-10-21T22:31:58.131Z,100106.38
2018-10-21T22:34:26.474Z,100105.86
2018-10-21T22:36:54.860Z,100098.80
2018-10-21T22:39:23.528Z,100096.08
2018-10-21T22:41:51.916Z,100097.42
2018-10-21T22:44:20.271Z,100096.59
2018-10-21T22:46:49.011Z,100095.52
2018-10-21T22:49:17.369Z,100098.52
2018-10-21T22:51:45.710Z,100093.92
2018-10-21T22:54:14.160Z,100093.09
2018-10-21T22:56:42.443Z,100091.20
2018-10-21T22:59:10.859Z,100089.57
2018-10-21T23:01:39.249Z,100090.65
2018-10-21T23:04:07.711Z,100093.09
2018-10-21T23:06:36.085Z,100100.16
2018-10-21T23:09:06.532Z,100093.09
2018-10-21T23:11:34.992Z,100093.91
2018-10-21T23:14:03.297Z,100095.00
2018-10-21T23:16:31.650Z,100094.72
2018-10-21T23:19:11.966Z,100099.34
2018-10-21T23:21:40.481Z,100106.66
2018-10-21T23:24:08.934Z,100105.57
2018-10-21T23:26:37.605Z,100116.67
2018-10-21T23:29:05.981Z,100112.33
2018-10-21T23:31:34.397Z,100108.56
2018-10-21T23:34:02.768Z,100105.59
2018-10-21T23:36:31.345Z,100107.48
2018-10-21T23:39:00.684Z,100099.05
2018-10-21T23:41:29.396Z,100098.23
2018-10-21T23:43:57.739Z,100096.33
2018-10-21T23:46:26.355Z,100096.59
2018-10-21T23:48:54.816Z,100099.58
2018-10-21T23:51:23.286Z,100098.22
2018-10-21T23:53:51.682Z,100096.36
2018-10-21T23:56:20.054Z,100100.43
2018-10-21T23:58:48.456Z,100092.56
